createdAt,value
2024-04-19T00:01:45.084Z,7.57
2024-04-19T00:04:11.874Z,7.59
2024-04-19T00:06:38.507Z,7.58
2024-04-19T00:09:05.043Z,7.59
2024-04-19T00:11:31.530Z,7.60
2024-04-19T00:13:58.075Z,7.58
2024-04-19T00:16:26.421Z,7.60
2024-04-19T00:18:53.106Z,7.61
2024-04-19T00:21:20.707Z,7.59
2024-04-19T00:23:47.223Z,7.60
2024-04-19T00:26:13.742Z,7.59
2024-04-19T00:28:40.643Z,7.58
2024-04-19T00:31:07.296Z,7.59
2024-04-19T00:33:34.171Z,7.58
2024-04-19T00:36:00.738Z,7.57
2024-04-19T00:38:27.233Z,7.58
2024-04-19T00:40:55.807Z,7.56
2024-04-19T00:43:22.335Z,7.57
2024-04-19T00:45:48.994Z,7.55
2024-04-19T00:48:20.981Z,7.53
2024-04-19T00:50:54.382Z,7.54
2024-04-19T00:53:27.522Z,7.51
2024-04-19T00:55:56.675Z,7.49
2024-04-19T00:58:23.897Z,7.50
2024-04-19T01:00:51.778Z,7.48
2024-04-19T01:03:18.340Z,7.46
2024-04-19T01:05:44.922Z,7.48
2024-04-19T01:08:11.986Z,7.46
2024-04-19T01:10:40.357Z,7.46
2024-04-19T01:13:07.627Z,7.43
2024-04-19T01:15:37.098Z,7.44
2024-04-19T01:18:04.804Z,7.46
2024-04-19T01:20:31.471Z,7.43
2024-04-19T01:22:58.870Z,7.42
2024-04-19T01:25:37.085Z,7.41
2024-04-19T01:28:08.605Z,7.41
2024-04-19T01:30:36.308Z,7.40
2024-04-19T01:33:02.932Z,7.39
2024-04-19T01:35:29.763Z,7.40
2024-04-19T01:37:56.342Z,7.39
2024-04-19T01:40:23.163Z,7.39
2024-04-19T01:42:50.688Z,7.38
2024-04-19T01:45:17.284Z,7.39
2024-04-19T01:47:44.358Z,7.38
2024-04-19T01:50:10.953Z,7.36
2024-04-19T01:52:37.507Z,7.38
2024-04-19T01:55:04.821Z,7.37
2024-04-19T01:57:31.813Z,7.36
2024-04-19T01:59:58.394Z,7.39
2024-04-19T02:02:28.106Z,7.36
2024-04-19T02:04:54.670Z,7.37
2024-04-19T02:07:21.576Z,7.36
2024-04-19T02:09:48.339Z,7.37
2024-04-19T02:12:14.973Z,7.40
2024-04-19T02:14:41.490Z,7.40
2024-04-19T02:17:08.251Z,7.36
2024-04-19T02:19:37.651Z,7.38
2024-04-19T02:22:05.958Z,7.37
2024-04-19T02:24:34.030Z,7.38
2024-04-19T02:27:02.089Z,7.39
2024-04-19T02:29:47.446Z,7.41
2024-04-19T02:32:14.418Z,7.43
2024-04-19T02:34:44.760Z,7.43
2024-04-19T02:37:12.700Z,7.43
2024-04-19T02:39:39.516Z,7.43
2024-04-19T02:42:06.090Z,7.44
2024-04-19T02:44:32.598Z,7.43
2024-04-19T02:46:59.137Z,7.46
2024-04-19T02:49:25.724Z,7.45
2024-04-19T02:51:53.672Z,7.47
2024-04-19T02:54:20.395Z,7.49
2024-04-19T02:56:46.906Z,7.49
2024-04-19T02:59:13.398Z,7.49
2024-04-19T03:01:39.898Z,7.49
2024-04-19T03:04:06.512Z,7.49
2024-04-19T03:06:33.171Z,7.51
2024-04-19T03:09:02.760Z,7.50
2024-04-19T03:11:29.677Z,7.50
2024-04-19T03:13:56.305Z,7.52
2024-04-19T03:16:22.801Z,7.54
2024-04-19T03:18:51.474Z,7.55
2024-04-19T03:21:18.271Z,7.57
2024-04-19T03:23:44.842Z,7.56
2024-04-19T03:26:11.751Z,7.57
2024-04-19T03:28:38.321Z,7.56
2024-04-19T03:31:08.529Z,7.59
2024-04-19T03:33:35.326Z,7.60
2024-04-19T03:36:06.888Z,7.62
2024-04-19T03:38:33.510Z,7.63
2024-04-19T03:41:00.036Z,7.64
2024-04-19T03:43:33.333Z,7.66
2024-04-19T03:46:01.478Z,7.67
2024-04-19T03:48:28.149Z,7.69
2024-04-19T03:50:54.759Z,7.68
2024-04-19T03:53:22.409Z,7.70
2024-04-19T03:55:49.218Z,7.71
2024-04-19T03:58:15.841Z,7.73
2024-04-19T04:00:42.543Z,7.75
2024-04-19T04:03:09.805Z,7.76
2024-04-19T04:05:36.440Z,7.76
2024-04-19T04:08:03.270Z,7.77
2024-04-19T04:10:29.766Z,7.78
2024-04-19T04:12:58.244Z,7.78
2024-04-19T04:15:25.080Z,7.81
2024-04-19T04:17:51.755Z,7.82
2024-04-19T04:20:18.393Z,7.82
2024-04-19T04:22:44.887Z,7.85
2024-04-19T04:25:11.576Z,7.87
2024-04-19T04:27:38.079Z,7.88
2024-04-19T04:30:05.083Z,7.89
2024-04-19T04:32:31.689Z,7.93
2024-04-19T04:34:58.446Z,7.96
2024-04-19T04:37:25.036Z,7.98
2024-04-19T04:39:51.732Z,8.01
2024-04-19T04:42:18.323Z,8.05
2024-04-19T04:44:44.857Z,8.08
2024-04-19T04:47:11.735Z,8.11
2024-04-19T04:49:38.251Z,8.13
2024-04-19T04:52:04.914Z,8.15
2024-04-19T04:54:31.455Z,8.17
2024-04-19T04:56:58.173Z,8.20
2024-04-19T04:59:24.708Z,8.23
2024-04-19T05:01:51.749Z,8.26
2024-04-19T05:04:18.331Z,8.28
2024-04-19T05:06:45.079Z,8.29
2024-04-19T05:09:11.794Z,8.32
2024-04-19T05:11:38.338Z,8.32
2024-04-19T05:14:04.938Z,8.34
2024-04-19T05:16:31.459Z,8.36
2024-04-19T05:18:58.072Z,8.37
2024-04-19T05:21:24.674Z,8.40
2024-04-19T05:23:51.715Z,8.40
2024-04-19T05:26:18.312Z,8.42
2024-04-19T05:28:44.966Z,8.44
2024-04-19T05:31:11.713Z,8.45
2024-04-19T05:33:38.270Z,8.46
2024-04-19T05:36:05.241Z,8.49
2024-04-19T05:38:31.787Z,8.50
2024-04-19T05:40:58.347Z,8.51
2024-04-19T05:43:24.869Z,8.53
2024-04-19T05:45:51.858Z,8.53
2024-04-19T05:48:21.695Z,8.54
2024-04-19T05:50:49.108Z,8.56
2024-04-19T05:53:15.679Z,8.56
2024-04-19T05:55:45.422Z,8.57
2024-04-19T05:58:13.218Z,8.59
2024-04-19T06:00:39.865Z,8.61
2024-04-19T06:03:06.694Z,8.61
2024-04-19T06:05:33.303Z,8.62
2024-04-19T06:07:59.906Z,8.63
2024-04-19T06:10:26.444Z,8.65
2024-04-19T06:12:53.172Z,8.66
2024-04-19T06:15:20.257Z,8.68
2024-04-19T06:17:46.857Z,8.68
2024-04-19T06:20:13.478Z,8.70
2024-04-19T06:22:40.029Z,8.72
2024-04-19T06:25:06.694Z,8.74
2024-04-19T06:27:33.280Z,8.78
2024-04-19T06:29:59.872Z,8.84
2024-04-19T06:32:26.526Z,8.89
2024-04-19T06:34:53.095Z,8.93
2024-04-19T06:37:19.878Z,8.93
2024-04-19T06:39:54.831Z,8.92
2024-04-19T06:42:29.018Z,8.91
2024-04-19T06:44:55.781Z,8.93
2024-04-19T06:47:22.449Z,8.96
2024-04-19T06:49:49.072Z,9.01
2024-04-19T06:52:15.621Z,9.01
2024-04-19T06:54:42.244Z,9.02
2024-04-19T06:57:09.076Z,9.02
2024-04-19T06:59:35.648Z,9.02
2024-04-19T07:02:02.321Z,9.03
2024-04-19T07:04:29.012Z,9.04
2024-04-19T07:06:55.632Z,9.04
2024-04-19T07:09:23.281Z,9.02
2024-04-19T07:11:50.715Z,9.01
2024-04-19T07:14:17.267Z,8.98
2024-04-19T07:16:44.115Z,8.95
2024-04-19T07:19:10.785Z,8.95
2024-04-19T07:21:37.319Z,8.97
2024-04-19T07:24:03.976Z,8.96
2024-04-19T07:26:30.530Z,8.97
2024-04-19T07:28:59.596Z,8.95
2024-04-19T07:31:26.167Z,8.93
2024-04-19T07:33:55.597Z,8.90
2024-04-19T07:36:22.142Z,8.87
2024-04-19T07:38:48.757Z,8.85
2024-04-19T07:41:16.898Z,8.81
2024-04-19T07:43:49.787Z,8.81
2024-04-19T07:46:20.607Z,8.83
2024-04-19T07:48:47.378Z,8.83
2024-04-19T07:51:13.984Z,8.84
2024-04-19T07:53:40.497Z,8.83
2024-04-19T07:56:07.131Z,8.83
2024-04-19T07:58:35.017Z,8.84
2024-04-19T08:01:01.853Z,8.85
2024-04-19T08:03:28.579Z,8.87
2024-04-19T08:05:55.196Z,8.85
2024-04-19T08:08:21.874Z,8.79
2024-04-19T08:10:48.368Z,8.80
2024-04-19T08:13:14.883Z,8.81
2024-04-19T08:15:41.442Z,8.83
2024-04-19T08:18:08.056Z,8.84
2024-04-19T08:20:34.662Z,8.87
2024-04-19T08:23:01.215Z,8.95
2024-04-19T08:25:27.764Z,9.02
2024-04-19T08:27:54.555Z,9.06
2024-04-19T08:30:22.220Z,9.09
2024-04-19T08:32:49.072Z,9.14
2024-04-19T08:35:15.716Z,9.19
2024-04-19T08:37:42.301Z,9.22
2024-04-19T08:40:22.378Z,9.24
2024-04-19T08:42:49.179Z,9.27
2024-04-19T08:45:21.299Z,9.30
2024-04-19T08:47:50.155Z,9.38
2024-04-19T08:50:19.704Z,9.37
2024-04-19T08:53:09.260Z,9.34
2024-04-19T08:55:38.268Z,9.27
2024-04-19T08:58:05.999Z,9.19
2024-04-19T09:00:32.563Z,9.16
2024-04-19T09:02:59.635Z,9.19
2024-04-19T09:05:26.376Z,9.25
2024-04-19T09:07:53.134Z,9.34
2024-04-19T09:10:20.347Z,9.46
2024-04-19T09:12:47.082Z,9.53
2024-04-19T09:15:13.598Z,9.58
2024-04-19T09:17:40.271Z,9.56
2024-04-19T09:20:07.241Z,9.62
2024-04-19T09:22:33.812Z,9.68
2024-04-19T09:25:00.446Z,9.72
2024-04-19T09:27:28.834Z,9.77
2024-04-19T09:32:24.978Z,10.12
2024-04-19T09:34:52.072Z,10.28
2024-04-19T09:37:18.749Z,10.27
2024-04-19T09:39:45.325Z,10.14
2024-04-19T09:42:11.937Z,10.19
2024-04-19T09:44:42.118Z,10.22
2024-04-19T09:47:11.872Z,10.21
2024-04-19T09:49:44.025Z,10.17
2024-04-19T09:52:20.630Z,10.14
2024-04-19T09:54:53.567Z,10.18
2024-04-19T09:57:23.028Z,10.18
2024-04-19T09:59:49.945Z,10.14
2024-04-19T10:02:24.650Z,10.09
2024-04-19T10:04:56.357Z,10.03
2024-04-19T10:07:24.811Z,10.20
2024-04-19T10:09:54.933Z,10.49
2024-04-19T10:12:22.612Z,10.56
2024-04-19T10:14:49.180Z,10.51
2024-04-19T10:17:15.760Z,10.54
2024-04-19T10:19:52.186Z,10.60
2024-04-19T10:22:25.763Z,10.61
2024-04-19T10:24:59.474Z,10.62
2024-04-19T10:27:30.049Z,10.60
2024-04-19T10:30:01.076Z,10.53
2024-04-19T10:32:29.303Z,10.39
2024-04-19T10:34:56.070Z,10.04
2024-04-19T10:37:22.745Z,9.73
2024-04-19T10:39:49.361Z,9.56
2024-04-19T10:42:20.210Z,9.39
2024-04-19T10:44:49.382Z,9.33
2024-04-19T10:47:17.163Z,9.31
2024-04-19T10:49:45.315Z,9.28
2024-04-19T10:52:12.183Z,9.24
2024-04-19T10:54:38.880Z,9.15
2024-04-19T10:57:05.587Z,9.07
2024-04-19T10:59:32.243Z,8.96
2024-04-19T11:02:01.290Z,8.91
2024-04-19T11:04:28.241Z,8.93
2024-04-19T11:06:54.996Z,8.98
2024-04-19T11:09:22.188Z,9.06
2024-04-19T11:11:49.333Z,9.09
2024-04-19T11:14:20.081Z,9.11
2024-04-19T11:16:47.196Z,9.06
2024-04-19T11:19:17.374Z,8.92
2024-04-19T11:21:44.900Z,8.68
2024-04-19T11:24:11.725Z,8.57
2024-04-19T11:26:38.684Z,8.52
2024-04-19T11:29:06.242Z,8.50
2024-04-19T11:31:33.806Z,8.52
2024-04-19T11:34:01.422Z,8.56
2024-04-19T11:36:28.188Z,8.61
2024-04-19T11:38:59.300Z,8.70
2024-04-19T11:41:25.885Z,9.07
2024-04-19T11:43:52.888Z,9.31
2024-04-19T11:46:22.773Z,9.34
2024-04-19T11:48:49.440Z,9.30
2024-04-19T11:51:16.501Z,9.19
2024-04-19T11:53:43.014Z,9.17
2024-04-19T11:56:09.602Z,9.19
2024-04-19T11:58:36.412Z,9.36
2024-04-19T12:01:03.111Z,9.60
2024-04-19T12:03:31.618Z,9.62
2024-04-19T12:05:59.273Z,9.43
2024-04-19T12:08:26.183Z,9.27
2024-04-19T12:10:53.064Z,9.22
2024-04-19T12:14:07.773Z,9.17
2024-04-19T12:16:35.519Z,9.16
2024-04-19T12:18:54.248Z,9.26
2024-04-19T12:21:21.271Z,9.41
2024-04-19T12:23:49.523Z,9.58
2024-04-19T12:26:19.230Z,9.46
2024-04-19T12:28:54.063Z,9.17
2024-04-19T12:31:24.163Z,8.92
2024-04-19T12:33:51.113Z,8.81
2024-04-19T12:36:17.679Z,9.06
2024-04-19T12:38:44.239Z,9.36
2024-04-19T12:41:10.802Z,9.61
2024-04-19T12:43:37.888Z,9.53
2024-04-19T12:46:04.724Z,9.21
2024-04-19T12:48:31.658Z,8.92
2024-04-19T12:50:58.991Z,8.76
2024-04-19T12:53:25.501Z,8.78
2024-04-19T12:55:52.519Z,8.98
2024-04-19T12:58:19.709Z,9.14
2024-04-19T13:00:46.458Z,9.15
2024-04-19T13:03:13.250Z,9.25
2024-04-19T13:05:40.116Z,9.38
2024-04-19T13:08:07.083Z,9.51
2024-04-19T13:10:33.683Z,9.58
2024-04-19T13:13:00.354Z,9.44
2024-04-19T13:15:26.991Z,9.29
2024-04-19T13:17:53.620Z,9.18
2024-04-19T13:20:20.159Z,9.07
2024-04-19T13:22:46.661Z,9.00
2024-04-19T13:25:13.381Z,8.95
2024-04-19T13:27:40.178Z,8.91
2024-04-19T13:30:07.460Z,8.90
2024-04-19T13:32:34.915Z,8.92
2024-04-19T13:35:01.814Z,8.93
2024-04-19T13:37:28.503Z,8.92
2024-04-19T13:39:55.121Z,9.04
2024-04-19T13:42:22.365Z,9.18
2024-04-19T13:44:49.044Z,9.20
2024-04-19T13:47:15.670Z,9.20
2024-04-19T13:49:42.266Z,9.25
2024-04-19T13:52:09.087Z,9.33
2024-04-19T13:54:35.873Z,9.28
2024-04-19T13:57:02.579Z,9.21
2024-04-19T13:59:29.356Z,9.23
2024-04-19T14:01:57.086Z,9.23
2024-04-19T14:04:23.784Z,9.27
2024-04-19T14:06:51.145Z,9.38
2024-04-19T14:09:17.729Z,9.39
2024-04-19T14:11:45.776Z,9.44
2024-04-19T14:14:12.491Z,9.42
2024-04-19T14:16:39.112Z,9.40
2024-04-19T14:19:05.649Z,9.34
2024-04-19T14:21:32.643Z,9.28
2024-04-19T14:23:59.219Z,9.24
2024-04-19T14:26:25.834Z,9.24
2024-04-19T14:28:52.818Z,9.26
2024-04-19T14:31:19.403Z,9.29
2024-04-19T14:33:45.982Z,9.38
2024-04-19T14:36:12.644Z,9.37
2024-04-19T14:38:39.163Z,9.30
2024-04-19T14:41:06.945Z,9.17
2024-04-19T14:43:38.731Z,9.14
2024-04-19T14:46:06.771Z,9.19
2024-04-19T14:48:34.597Z,9.22
2024-04-19T14:51:01.410Z,9.23
2024-04-19T14:53:28.045Z,9.24
2024-04-19T14:55:55.675Z,9.29
2024-04-19T14:58:22.437Z,9.28
2024-04-19T15:00:51.331Z,9.21
2024-04-19T15:03:18.330Z,9.01
2024-04-19T15:05:44.998Z,8.92
2024-04-19T15:08:11.532Z,8.83
2024-04-19T15:10:40.065Z,8.71
2024-04-19T15:13:06.959Z,8.64
2024-04-19T15:15:33.903Z,8.61
2024-04-19T15:18:00.768Z,8.60
2024-04-19T15:20:27.727Z,8.66
2024-04-19T15:22:59.087Z,8.74
2024-04-19T15:25:26.591Z,8.81
2024-04-19T15:27:53.221Z,8.86
2024-04-19T15:30:19.906Z,8.82
2024-04-19T15:32:47.637Z,8.75
2024-04-19T15:35:14.588Z,8.73
2024-04-19T15:37:43.062Z,8.75
2024-04-19T15:40:10.080Z,8.75
2024-04-19T15:42:36.818Z,8.80
2024-04-19T15:45:03.771Z,8.73
2024-04-19T15:47:30.402Z,8.70
2024-04-19T15:49:57.158Z,8.68
2024-04-19T15:52:23.730Z,8.67
2024-04-19T15:54:52.883Z,8.66
2024-04-19T15:57:20.027Z,8.66
2024-04-19T15:59:46.559Z,8.67
2024-04-19T16:02:13.901Z,8.63
2024-04-19T16:04:40.487Z,8.58
2024-04-19T16:07:07.224Z,8.56
2024-04-19T16:09:33.868Z,8.59
2024-04-19T16:12:01.137Z,8.59
2024-04-19T16:14:27.962Z,8.59
2024-04-19T16:16:54.565Z,8.63
2024-04-19T16:19:21.501Z,8.71
2024-04-19T16:21:48.073Z,8.75
2024-04-19T16:24:14.594Z,8.85
2024-04-19T16:26:41.123Z,8.91
2024-04-19T16:29:07.686Z,8.91
2024-04-19T16:31:34.197Z,8.96
2024-04-19T16:34:00.883Z,8.96
2024-04-19T16:36:29.199Z,9.00
2024-04-19T16:38:56.343Z,8.97
2024-04-19T16:41:23.148Z,8.88
2024-04-19T16:43:49.712Z,8.83
2024-04-19T16:46:16.283Z,8.78
2024-04-19T16:48:43.721Z,8.76
2024-04-19T16:51:10.316Z,8.74
2024-04-19T16:53:36.890Z,8.74
2024-04-19T16:56:06.238Z,8.72
2024-04-19T16:58:34.677Z,8.70
2024-04-19T17:01:01.598Z,8.63
2024-04-19T17:03:28.295Z,8.60
2024-04-19T17:05:54.869Z,8.60
2024-04-19T17:08:21.687Z,8.60
2024-04-19T17:10:49.189Z,8.60
2024-04-19T17:13:15.988Z,8.59
2024-04-19T17:15:42.578Z,8.59
2024-04-19T17:18:09.169Z,8.59
2024-04-19T17:20:37.451Z,8.61
2024-04-19T17:23:04.082Z,8.60
2024-04-19T17:25:30.695Z,8.57
2024-04-19T17:27:59.135Z,8.50
2024-04-19T17:30:25.722Z,8.44
2024-04-19T17:32:52.872Z,8.39
2024-04-19T17:35:19.618Z,8.31
2024-04-19T17:37:46.184Z,8.24
2024-04-19T17:40:12.716Z,8.20
2024-04-19T17:42:39.294Z,8.16
2024-04-19T17:45:06.137Z,8.11
2024-04-19T17:47:32.915Z,8.05
2024-04-19T17:49:59.583Z,8.03
2024-04-19T17:52:26.181Z,7.99
2024-04-19T17:54:52.777Z,7.97
2024-04-19T17:57:19.351Z,7.97
2024-04-19T17:59:45.957Z,7.96
2024-04-19T18:02:14.115Z,7.95
2024-04-19T18:07:07.310Z,7.90
2024-04-19T18:09:33.914Z,7.92
2024-04-19T18:12:00.516Z,7.92
2024-04-19T18:14:27.103Z,7.90
2024-04-19T18:16:56.546Z,7.86
2024-04-19T18:19:26.817Z,7.84
2024-04-19T18:21:53.783Z,7.80
2024-04-19T18:24:24.520Z,7.78
2024-04-19T18:26:51.625Z,7.75
2024-04-19T18:29:18.127Z,7.74
2024-04-19T18:31:44.749Z,7.73
2024-04-19T18:34:16.923Z,7.72
2024-04-19T18:36:45.938Z,7.72
2024-04-19T18:39:13.111Z,7.70
2024-04-19T18:41:40.340Z,7.70
2024-04-19T18:44:07.079Z,7.70
2024-04-19T18:46:33.666Z,7.72
2024-04-19T18:49:00.468Z,7.65
2024-04-19T18:51:27.130Z,7.64
2024-04-19T18:53:54.440Z,7.62
2024-04-19T18:56:21.095Z,7.57
2024-04-19T18:58:48.658Z,7.54
2024-04-19T19:01:19.155Z,7.52
2024-04-19T19:03:47.947Z,7.49
2024-04-19T19:06:15.780Z,7.48
2024-04-19T19:08:42.354Z,7.47
2024-04-19T19:11:15.154Z,7.48
2024-04-19T19:13:44.536Z,7.45
2024-04-19T19:16:11.367Z,7.46
2024-04-19T19:18:38.094Z,7.46
2024-04-19T19:21:05.051Z,7.46
2024-04-19T19:23:32.049Z,7.42
2024-04-19T19:26:07.183Z,7.40
2024-04-19T19:28:34.096Z,7.40
2024-04-19T19:31:00.840Z,7.39
2024-04-19T19:33:27.843Z,7.39
2024-04-19T19:35:58.864Z,7.36
2024-04-19T19:38:25.470Z,7.35
2024-04-19T19:40:52.092Z,7.37
2024-04-19T19:43:21.458Z,7.39
2024-04-19T19:46:00.813Z,7.43
2024-04-19T19:48:30.016Z,7.42
2024-04-19T19:50:58.374Z,7.37
2024-04-19T19:53:25.079Z,7.34
2024-04-19T19:55:51.772Z,7.31
2024-04-19T19:58:19.235Z,7.27
2024-04-19T20:01:04.636Z,7.22
2024-04-19T20:03:49.877Z,7.17
2024-04-19T20:06:16.626Z,7.14
2024-04-19T20:08:43.213Z,7.12
2024-04-19T20:11:09.925Z,7.08
2024-04-19T20:13:37.274Z,7.05
2024-04-19T20:16:04.126Z,7.06
2024-04-19T20:18:30.981Z,7.05
2024-04-19T20:20:59.123Z,7.07
2024-04-19T20:23:25.935Z,7.07
2024-04-19T20:25:52.861Z,7.07
2024-04-19T20:28:19.437Z,7.05
2024-04-19T20:30:46.060Z,7.05
2024-04-19T20:33:12.703Z,7.02
2024-04-19T20:35:39.708Z,7.03
2024-04-19T20:38:06.498Z,7.03
2024-04-19T20:40:33.207Z,7.02
2024-04-19T20:43:14.682Z,7.00
2024-04-19T20:45:46.976Z,7.02
2024-04-19T20:48:13.708Z,7.02
2024-04-19T20:50:40.471Z,7.01
2024-04-19T20:53:07.014Z,6.98
2024-04-19T20:55:38.338Z,7.00
2024-04-19T20:58:05.168Z,6.99
2024-04-19T21:00:34.777Z,7.03
2024-04-19T21:03:01.940Z,7.02
2024-04-19T21:05:29.231Z,7.03
2024-04-19T21:07:55.756Z,6.97
2024-04-19T21:10:24.125Z,6.96
2024-04-19T21:12:51.777Z,6.97
2024-04-19T21:15:19.692Z,6.96
2024-04-19T21:17:46.363Z,6.93
2024-04-19T21:20:12.912Z,6.93
2024-04-19T21:22:39.600Z,6.91
2024-04-19T21:25:06.707Z,6.90
2024-04-19T21:27:34.167Z,6.89
2024-04-19T21:30:00.859Z,6.91
2024-04-19T21:32:29.746Z,6.93
2024-04-19T21:34:56.306Z,6.92
2024-04-19T21:37:23.102Z,6.94
2024-04-19T21:39:53.277Z,6.92
2024-04-19T21:42:22.031Z,6.90
2024-04-19T21:44:52.674Z,6.87
2024-04-19T21:47:19.900Z,6.81
2024-04-19T21:49:46.502Z,6.74
2024-04-19T21:52:13.060Z,6.73
2024-04-19T21:54:39.682Z,6.68
2024-04-19T21:57:06.262Z,6.68
2024-04-19T21:59:32.763Z,6.69
2024-04-19T22:01:59.557Z,6.69
2024-04-19T22:04:26.273Z,6.69
2024-04-19T22:06:53.101Z,6.67
2024-04-19T22:09:19.743Z,6.61
2024-04-19T22:11:46.306Z,6.58
2024-04-19T22:14:12.843Z,6.58
2024-04-19T22:16:39.440Z,6.49
2024-04-19T22:19:06.138Z,6.47
2024-04-19T22:21:32.957Z,6.42
2024-04-19T22:23:59.546Z,6.41
2024-04-19T22:26:26.484Z,6.39
2024-04-19T22:28:53.173Z,6.39
2024-04-19T22:31:19.823Z,6.41
2024-04-19T22:33:46.552Z,6.39
2024-04-19T22:36:13.196Z,6.41
2024-04-19T22:38:39.948Z,6.41
2024-04-19T22:41:06.477Z,6.39
2024-04-19T22:43:35.284Z,6.39
2024-04-19T22:46:05.417Z,6.37
2024-04-19T22:48:32.251Z,6.37
2024-04-19T22:50:59.412Z,6.36
2024-04-19T22:53:25.932Z,6.36
2024-04-19T22:55:56.521Z,6.38
2024-04-19T22:58:23.836Z,6.36
2024-04-19T23:00:51.106Z,6.34
2024-04-19T23:03:18.327Z,6.30
2024-04-19T23:05:44.860Z,6.31
2024-04-19T23:08:11.519Z,6.28
2024-04-19T23:10:38.171Z,6.29
2024-04-19T23:13:06.612Z,6.30
2024-04-19T23:15:34.962Z,6.32
2024-04-19T23:18:02.305Z,6.31
2024-04-19T23:20:29.555Z,6.30
2024-04-19T23:22:56.378Z,6.30
2024-04-19T23:25:23.234Z,6.30
2024-04-19T23:27:49.961Z,6.29
2024-04-19T23:30:16.794Z,6.27
2024-04-19T23:32:43.446Z,6.27
2024-04-19T23:35:10.248Z,6.28
2024-04-19T23:37:38.532Z,6.25
2024-04-19T23:40:06.191Z,6.22
2024-04-19T23:42:32.760Z,6.19
2024-04-19T23:44:59.560Z,6.16
2024-04-19T23:47:29.921Z,6.14
2024-04-19T23:49:57.119Z,6.15
2024-04-19T23:52:23.750Z,6.18
2024-04-19T23:54:51.901Z,6.20
2024-04-19T23:57:18.557Z,6.16
2024-04-19T23:59:45.321Z,6.10
